x

Central Caribbean - 210 Nm Sse Of Kingston, Jamaica (42058) Wave Buoy

1:50am - Sat 30th May 2015 All times are EST. -5 hours from GMT.

  • Sig Wave height 3.9ft
  • Swell Direction
  • Peak Period 6s
  • Average Period 4s
  • Wind
    18mph, 22mph gusts
  • Sea Temp 80°f
  • Air Temp 80°f
  • Sea Pressure 1011.7mb
  • Central Caribbean - 210 Nm Sse Of Kingston, Jamaica
  • Central Caribbean - 210 Nm Sse Of Kingston, Jamaica

More Historic Weather Station data

Upgrade to MSW Pro to gain access to the past 30 days of data for over 8000 Wavebouys and Weather Stations around the globe.

Join Pro

Comparision Forecast

View Surf forecast
   
Sat 05/30 1:50am 4ft 6s 4s 18 22 mph 1011.7mb 80f 80f
12:50am 3.5ft 5s 4s 16 20 mph 1012.2mb 80f 80f
Fri 05/29 11:50pm 3.5ft 5s 4s 18 22 mph 1012.7mb 80f 81f
10:50pm 3.5ft 5s 4s 16 20 mph 1013.5mb 80f 81f
9:50pm 3.5ft 6s 4s 18 20 mph 1013.3mb 80f 81f
8:50pm 3.5ft 5s 4s 16 18 mph 1012.8mb 80f 81f
7:50pm 3.5ft 6s 4s 16 18 mph 1012.6mb 80f 80f
6:50pm 3.5ft 6s 4s 13 16 mph 1012mb 81f 80f
5:50pm 3.5ft 6s 4s 11 13 mph 1011.6mb 81f 80f
4:50pm 3.5ft 6s 4s 13 16 mph 1011mb 81f 80f
3:50pm 3.5ft 5s 4s 13
mph
1011.3mb 81f 80f
2:50pm 3.5ft 6s 4s 11
mph
1012.1mb 81f 80f
1:50pm 3.5ft 7s 4s 13 16 mph 1012.6mb 81f 81f
12:50pm 3ft 5s 4s 16 18 mph 1013.1mb 81f 81f
11:50am 3.5ft 5s 5s 16 18 mph 1013.7mb 81f 81f
10:50am 3.5ft 6s 5s 13 16 mph 1014mb 81f 81f
9:50am 3.5ft 5s 5s 13 16 mph 1014.2mb 81f 81f
8:50am 3.5ft 6s 5s 13 18 mph 1013.8mb 81f 81f
7:50am 3.5ft 7s 5s 16 18 mph 1013.3mb 81f 81f
6:50am 3.5ft 7s  -  16 18 mph 1012.8mb 81f 81f
5:50am 3.5ft 6s 5s 16 18 mph 1012mb 81f 81f
4:50am 3.5ft 7s 4s 16 18 mph 1011.7mb 81f 80f
3:50am 3.5ft 6s 4s 16 18 mph 1011.6mb 81f 80f
2:50am 3.5ft 7s 5s 16 20 mph 1011.6mb 81f 80f
1:50am 3.5ft 7s 5s 16 18 mph 1011.8mb 81f 80f
12:50am 3.5ft 6s 5s 16 18 mph 1012.3mb 81f 80f
Thu 05/28 11:50pm 3.5ft 7s 5s 13 16 mph 1013.2mb 81f 81f
10:50pm 3.5ft 7s 5s 13 16 mph 1013.8mb 81f 81f
3:50pm 4ft 6s 5s 16 18 mph 1011.2mb 81f 81f
2:50pm 3.5ft 7s 5s 13 16 mph 1011.5mb 81f 81f
1:50pm 3.5ft 7s 5s 13 16 mph 1012.1mb 82f 81f
12:50pm 3.5ft 6s 5s 13
mph
1012.8mb 81f 81f
11:50am 3.5ft 6s 5s 13 16 mph 1013.5mb 81f 81f
10:50am 4ft 6s 5s 16 18 mph 1013.5mb 81f 81f
9:50am 4ft 6s 5s 16 18 mph 1013.6mb 81f 81f
8:50am 4.5ft 7s 5s 16 18 mph 1013.6mb 81f 81f
7:50am 4.5ft 6s 5s 16 18 mph 1013.1mb 81f 81f
6:50am 4.5ft 7s 5s 18 22 mph 1012.3mb 81f 81f
5:50am 4ft 7s 5s 16 20 mph 1011.4mb 81f 80f
4:50am 4.5ft 6s 5s 16 18 mph 1011.1mb 81f 80f
3:50am 4.5ft 7s 5s 16 18 mph 1010.7mb 81f 80f
2:50am 4.5ft 6s 5s 16 18 mph 1010.6mb 81f 80f
1:50am 4.5ft 6s 5s 16 18 mph 1011mb 81f 80f
12:50am 4.5ft 7s 5s 16 20 mph 1011.6mb 81f 80f
Wed 05/27 11:50pm 4.5ft 7s 5s 18 20 mph 1012.3mb 81f 81f
10:50pm 4.5ft 6s  -  18 22 mph 1012.7mb 81f 81f
9:50pm 4.5ft 7s 5s 18 20 mph 1012.8mb 81f 81f
8:50pm 4.5ft 7s 5s 18 20 mph 1012.4mb 81f 81f
7:50pm 4.5ft 7s 5s 18 20 mph 1011.8mb 81f 80f
6:50pm 4ft 7s 5s 20 22 mph 1010.9mb 81f 81f
5:50pm 4ft 7s 4s 16 20 mph 1010.6mb 81f 81f
4:50pm 4.5ft 7s 5s 18 20 mph 1010.5mb 81f 81f
3:50pm 4.5ft 7s 5s 18 20 mph 1010.8mb 81f 81f
2:50pm 4.5ft 6s 5s 18 20 mph 1011.1mb 81f 81f
1:50pm 4.5ft 7s 5s 16 20 mph 1011.9mb 81f 81f
12:50pm 4.5ft 7s 5s 18 20 mph 1012.5mb 81f 81f
11:50am 4.5ft 7s 5s 18 20 mph 1013mb 81f 81f
10:50am 4.5ft 7s 5s 16 20 mph 1013.6mb 81f 81f
9:50am 4.5ft 7s 5s 16 18 mph 1013.8mb 81f 80f
8:50am 4.5ft 7s 5s 16 20 mph 1013.8mb 81f 81f
7:50am 4.5ft 7s 5s 18 20 mph 1013.6mb 81f 81f
6:50am 5ft 7s 5s 18 22 mph 1013.1mb 81f 81f
5:50am 5.5ft 8s 5s 18 20 mph 1012.2mb 81f 80f
4:50am 5ft 6s 5s 18 22 mph 1011.8mb 81f 80f
3:50am 5ft 7s 5s 18 22 mph 1011.7mb 81f 80f
2:50am 5.5ft 7s 5s 18 20 mph 1011.6mb 81f 80f
1:50am 6ft 7s 5s 18 22 mph 1011.9mb 81f 80f
12:50am 5ft 7s 5s 20 22 mph 1012.2mb 81f 80f
Tue 05/26 11:50pm 5.5ft 7s 5s 18 20 mph 1013.1mb 81f 80f
10:50pm 5.5ft 7s 5s 20 25 mph 1013.6mb 81f 81f
9:50pm 5ft 7s 5s 20 22 mph 1013.6mb 81f 81f
8:50pm 5.5ft 7s 5s 20 22 mph 1013.5mb 81f 81f
7:50pm 5ft 6s 5s 18 22 mph 1013.3mb 81f 81f
6:50pm 5.5ft 7s 5s 20 25 mph 1012.6mb 81f 81f
5:50pm 5.5ft 8s 5s 20 22 mph 1012.1mb 81f 81f
4:50pm 6ft 8s 5s 18 22 mph 1011.7mb 81f 81f
3:50pm 5.5ft 8s 5s 20 22 mph 1012mb 81f 81f
2:50pm 6ft 8s 5s 18 22 mph 1012.3mb 81f 81f
1:50pm 6ft 7s 5s 18 22 mph 1012.6mb 81f 81f
12:50pm 6ft 8s 5s 20 25 mph 1013.3mb 81f 81f
11:50am 6ft 7s 5s 20 22 mph 1014.2mb 81f 81f
10:50am 5.5ft 8s 5s 18 22 mph 1014.9mb 81f 81f
9:50am 6ft 6s 5s 22 25 mph 1015.2mb 81f 81f
8:50am 6ft 7s 5s 20 22 mph 1015.3mb 81f 81f